sensor_id;sensor_type;location;lat;lon;timestamp;P1;durP1;ratioP1;P2;durP2;ratioP2
69765;SDS011;57039;48.014;21.384;2022-11-20T00:00:03;24.95;;;12.25;;
69765;SDS011;57039;48.014;21.384;2022-11-20T00:01:09;23.40;;;11.68;;
69765;SDS011;57039;48.014;21.384;2022-11-20T00:02:14;24.35;;;11.95;;
69765;SDS011;57039;48.014;21.384;2022-11-20T00:03:17;26.62;;;11.57;;
69765;SDS011;57039;48.014;21.384;2022-11-20T00:04:19;25.45;;;12.25;;
69765;SDS011;57039;48.014;21.384;2022-11-20T00:05:22;26.33;;;12.18;;
69765;SDS011;57039;48.014;21.384;2022-11-20T00:06:25;26.58;;;12.63;;
69765;SDS011;57039;48.014;21.384;2022-11-20T00:07:29;23.92;;;12.13;;
69765;SDS011;57039;48.014;21.384;2022-11-20T00:08:32;25.20;;;11.32;;
69765;SDS011;57039;48.014;21.384;2022-11-20T00:09:35;25.53;;;11.83;;
69765;SDS011;57039;48.014;21.384;2022-11-20T00:10:38;26.80;;;12.48;;
69765;SDS011;57039;48.014;21.384;2022-11-20T00:11:41;26.10;;;12.55;;
69765;SDS011;57039;48.014;21.384;2022-11-20T00:12:45;25.50;;;12.73;;
69765;SDS011;57039;48.014;21.384;2022-11-20T00:13:54;25.17;;;11.50;;
69765;SDS011;57039;48.014;21.384;2022-11-20T00:14:59;27.17;;;12.00;;
69765;SDS011;57039;48.014;21.384;2022-11-20T00:16:04;25.90;;;12.82;;
69765;SDS011;57039;48.014;21.384;2022-11-20T00:17:08;27.10;;;11.77;;
69765;SDS011;57039;48.014;21.384;2022-11-20T00:18:11;24.12;;;12.73;;
69765;SDS011;57039;48.014;21.384;2022-11-20T00:19:14;24.30;;;12.07;;
69765;SDS011;57039;48.014;21.384;2022-11-20T00:20:16;24.23;;;11.20;;
69765;SDS011;57039;48.014;21.384;2022-11-20T00:21:20;26.10;;;12.20;;
69765;SDS011;57039;48.014;21.384;2022-11-20T00:22:27;26.87;;;12.32;;
69765;SDS011;57039;48.014;21.384;2022-11-20T00:23:30;25.17;;;11.55;;
69765;SDS011;57039;48.014;21.384;2022-11-20T00:24:34;27.23;;;11.52;;
69765;SDS011;57039;48.014;21.384;2022-11-20T00:25:43;23.05;;;10.95;;
69765;SDS011;57039;48.014;21.384;2022-11-20T00:26:46;24.67;;;11.12;;
69765;SDS011;57039;48.014;21.384;2022-11-20T00:27:50;25.80;;;11.60;;
69765;SDS011;57039;48.014;21.384;2022-11-20T00:28:56;25.70;;;11.48;;
69765;SDS011;57039;48.014;21.384;2022-11-20T00:30:04;25.83;;;11.05;;
69765;SDS011;57039;48.014;21.384;2022-11-20T00:31:13;24.27;;;11.67;;
69765;SDS011;57039;48.014;21.384;2022-11-20T00:32:19;23.85;;;10.77;;
69765;SDS011;57039;48.014;21.384;2022-11-20T00:33:21;24.58;;;11.18;;
69765;SDS011;57039;48.014;21.384;2022-11-20T00:34:24;23.85;;;11.10;;
69765;SDS011;57039;48.014;21.384;2022-11-20T00:35:27;26.12;;;12.30;;
69765;SDS011;57039;48.014;21.384;2022-11-20T00:36:31;25.15;;;11.55;;
69765;SDS011;57039;48.014;21.384;2022-11-20T00:37:35;25.08;;;11.88;;
69765;SDS011;57039;48.014;21.384;2022-11-20T00:38:37;21.50;;;10.80;;
69765;SDS011;57039;48.014;21.384;2022-11-20T00:39:40;27.70;;;12.57;;
69765;SDS011;57039;48.014;21.384;2022-11-20T00:40:43;25.30;;;11.60;;
69765;SDS011;57039;48.014;21.384;2022-11-20T00:41:46;23.80;;;11.33;;
69765;SDS011;57039;48.014;21.384;2022-11-20T00:42:49;25.35;;;11.55;;
69765;SDS011;57039;48.014;21.384;2022-11-20T00:43:52;25.58;;;11.38;;
69765;SDS011;57039;48.014;21.384;2022-11-20T00:44:56;25.52;;;11.50;;
69765;SDS011;57039;48.014;21.384;2022-11-20T00:45:59;24.23;;;11.50;;
69765;SDS011;57039;48.014;21.384;2022-11-20T00:47:02;25.15;;;12.52;;
69765;SDS011;57039;48.014;21.384;2022-11-20T00:48:05;25.40;;;10.93;;
69765;SDS011;57039;48.014;21.384;2022-11-20T00:49:08;24.80;;;11.75;;
69765;SDS011;57039;48.014;21.384;2022-11-20T00:50:11;23.52;;;11.27;;
69765;SDS011;57039;48.014;21.384;2022-11-20T00:51:14;26.98;;;11.38;;
69765;SDS011;57039;48.014;21.384;2022-11-20T00:52:19;28.53;;;12.03;;
69765;SDS011;57039;48.014;21.384;2022-11-20T00:53:22;23.25;;;11.60;;
69765;SDS011;57039;48.014;21.384;2022-11-20T00:54:24;22.40;;;10.73;;
69765;SDS011;57039;48.014;21.384;2022-11-20T00:55:27;23.95;;;11.88;;
69765;SDS011;57039;48.014;21.384;2022-11-20T00:56:30;24.45;;;12.00;;
69765;SDS011;57039;48.014;21.384;2022-11-20T00:57:32;23.52;;;11.00;;
69765;SDS011;57039;48.014;21.384;2022-11-20T00:58:36;24.58;;;11.15;;
69765;SDS011;57039;48.014;21.384;2022-11-20T00:59:40;24.15;;;11.35;;
69765;SDS011;57039;48.014;21.384;2022-11-20T01:00:42;28.30;;;12.25;;
69765;SDS011;57039;48.014;21.384;2022-11-20T01:01:45;27.20;;;10.98;;
69765;SDS011;57039;48.014;21.384;2022-11-20T01:02:48;26.00;;;12.07;;
69765;SDS011;57039;48.014;21.384;2022-11-20T01:03:51;25.23;;;10.57;;
69765;SDS011;57039;48.014;21.384;2022-11-20T01:05:03;26.52;;;11.07;;
69765;SDS011;57039;48.014;21.384;2022-11-20T01:06:07;23.33;;;11.18;;
69765;SDS011;57039;48.014;21.384;2022-11-20T01:07:17;21.85;;;10.50;;
69765;SDS011;57039;48.014;21.384;2022-11-20T01:08:20;27.10;;;12.02;;
69765;SDS011;57039;48.014;21.384;2022-11-20T01:09:22;24.80;;;11.15;;
69765;SDS011;57039;48.014;21.384;2022-11-20T01:10:25;23.35;;;10.40;;
69765;SDS011;57039;48.014;21.384;2022-11-20T01:11:29;25.30;;;11.60;;
69765;SDS011;57039;48.014;21.384;2022-11-20T01:12:33;24.15;;;11.15;;
69765;SDS011;57039;48.014;21.384;2022-11-20T01:13:36;26.87;;;11.80;;
69765;SDS011;57039;48.014;21.384;2022-11-20T01:14:39;23.80;;;11.15;;
69765;SDS011;57039;48.014;21.384;2022-11-20T01:15:42;25.27;;;10.57;;
69765;SDS011;57039;48.014;21.384;2022-11-20T01:16:47;23.55;;;11.57;;
69765;SDS011;57039;48.014;21.384;2022-11-20T01:17:52;24.17;;;11.10;;
69765;SDS011;57039;48.014;21.384;2022-11-20T01:18:56;22.75;;;10.85;;
69765;SDS011;57039;48.014;21.384;2022-11-20T01:20:02;22.75;;;10.25;;
69765;SDS011;57039;48.014;21.384;2022-11-20T01:21:05;24.12;;;11.43;;
69765;SDS011;57039;48.014;21.384;2022-11-20T01:22:10;22.05;;;10.98;;
69765;SDS011;57039;48.014;21.384;2022-11-20T01:23:13;24.35;;;11.10;;
69765;SDS011;57039;48.014;21.384;2022-11-20T01:24:16;23.80;;;10.93;;
69765;SDS011;57039;48.014;21.384;2022-11-20T01:25:20;22.83;;;11.12;;
69765;SDS011;57039;48.014;21.384;2022-11-20T01:26:24;22.50;;;10.98;;
69765;SDS011;57039;48.014;21.384;2022-11-20T01:27:30;22.80;;;10.93;;
69765;SDS011;57039;48.014;21.384;2022-11-20T01:28:33;23.52;;;10.35;;
69765;SDS011;57039;48.014;21.384;2022-11-20T01:29:36;21.77;;;10.35;;
69765;SDS011;57039;48.014;21.384;2022-11-20T01:30:39;26.52;;;10.25;;
69765;SDS011;57039;48.014;21.384;2022-11-20T01:31:42;22.40;;;10.50;;
69765;SDS011;57039;48.014;21.384;2022-11-20T01:32:45;22.37;;;10.15;;
69765;SDS011;57039;48.014;21.384;2022-11-20T01:33:49;30.77;;;11.05;;
69765;SDS011;57039;48.014;21.384;2022-11-20T01:34:53;24.37;;;10.20;;
69765;SDS011;57039;48.014;21.384;2022-11-20T01:36:02;24.20;;;10.55;;
69765;SDS011;57039;48.014;21.384;2022-11-20T01:37:06;23.73;;;11.55;;
69765;SDS011;57039;48.014;21.384;2022-11-20T01:38:09;22.95;;;10.85;;
69765;SDS011;57039;48.014;21.384;2022-11-20T01:39:14;21.12;;;10.38;;
69765;SDS011;57039;48.014;21.384;2022-11-20T01:40:22;22.70;;;10.57;;
69765;SDS011;57039;48.014;21.384;2022-11-20T01:41:25;22.40;;;9.90;;
69765;SDS011;57039;48.014;21.384;2022-11-20T01:42:52;23.33;;;10.07;;
69765;SDS011;57039;48.014;21.384;2022-11-20T01:44:45;23.92;;;10.27;;
69765;SDS011;57039;48.014;21.384;2022-11-20T01:45:56;22.15;;;9.93;;
69765;SDS011;57039;48.014;21.384;2022-11-20T01:47:02;20.13;;;9.13;;
69765;SDS011;57039;48.014;21.384;2022-11-20T01:48:08;22.00;;;9.35;;
69765;SDS011;57039;48.014;21.384;2022-11-20T01:49:22;22.83;;;9.23;;
69765;SDS011;57039;48.014;21.384;2022-11-20T01:50:28;23.25;;;10.05;;
69765;SDS011;57039;48.014;21.384;2022-11-20T01:52:53;20.90;;;9.65;;
69765;SDS011;57039;48.014;21.384;2022-11-20T01:54:00;21.80;;;9.05;;
69765;SDS011;57039;48.014;21.384;2022-11-20T01:55:07;24.08;;;10.75;;
69765;SDS011;57039;48.014;21.384;2022-11-20T01:56:33;20.95;;;9.65;;
69765;SDS011;57039;48.014;21.384;2022-11-20T01:57:40;23.10;;;10.48;;
69765;SDS011;57039;48.014;21.384;2022-11-20T01:58:48;20.77;;;9.53;;
69765;SDS011;57039;48.014;21.384;2022-11-20T01:59:55;22.60;;;9.90;;
69765;SDS011;57039;48.014;21.384;2022-11-20T02:01:13;19.10;;;9.00;;
69765;SDS011;57039;48.014;21.384;2022-11-20T02:02:17;19.48;;;9.57;;
69765;SDS011;57039;48.014;21.384;2022-11-20T02:03:20;22.35;;;9.57;;
69765;SDS011;57039;48.014;21.384;2022-11-20T02:04:23;24.75;;;10.57;;
69765;SDS011;57039;48.014;21.384;2022-11-20T02:05:28;21.33;;;10.18;;
69765;SDS011;57039;48.014;21.384;2022-11-20T02:06:40;20.95;;;9.48;;
69765;SDS011;57039;48.014;21.384;2022-11-20T02:07:50;23.08;;;10.25;;
69765;SDS011;57039;48.014;21.384;2022-11-20T02:08:56;23.92;;;10.52;;
69765;SDS011;57039;48.014;21.384;2022-11-20T02:09:59;21.67;;;10.30;;
69765;SDS011;57039;48.014;21.384;2022-11-20T02:11:01;22.75;;;10.25;;
69765;SDS011;57039;48.014;21.384;2022-11-20T02:12:04;26.85;;;10.73;;
69765;SDS011;57039;48.014;21.384;2022-11-20T02:13:28;23.40;;;10.55;;
69765;SDS011;57039;48.014;21.384;2022-11-20T02:14:46;23.08;;;10.45;;
69765;SDS011;57039;48.014;21.384;2022-11-20T02:15:49;22.65;;;10.75;;
69765;SDS011;57039;48.014;21.384;2022-11-20T02:16:52;22.92;;;10.25;;
69765;SDS011;57039;48.014;21.384;2022-11-20T02:17:56;23.10;;;11.18;;
69765;SDS011;57039;48.014;21.384;2022-11-20T02:19:00;22.20;;;10.40;;
69765;SDS011;57039;48.014;21.384;2022-11-20T02:20:05;24.37;;;11.05;;
69765;SDS011;57039;48.014;21.384;2022-11-20T02:21:19;22.43;;;10.47;;
69765;SDS011;57039;48.014;21.384;2022-11-20T02:22:30;21.10;;;10.75;;
69765;SDS011;57039;48.014;21.384;2022-11-20T02:24:58;22.75;;;10.55;;
69765;SDS011;57039;48.014;21.384;2022-11-20T02:26:05;22.25;;;10.10;;
69765;SDS011;57039;48.014;21.384;2022-11-20T02:27:13;24.48;;;11.30;;
69765;SDS011;57039;48.014;21.384;2022-11-20T02:28:17;28.65;;;11.98;;
69765;SDS011;57039;48.014;21.384;2022-11-20T02:29:24;23.40;;;11.00;;
69765;SDS011;57039;48.014;21.384;2022-11-20T02:30:30;24.42;;;11.43;;
69765;SDS011;57039;48.014;21.384;2022-11-20T02:31:36;27.02;;;12.00;;
69765;SDS011;57039;48.014;21.384;2022-11-20T02:32:42;26.47;;;11.03;;
69765;SDS011;57039;48.014;21.384;2022-11-20T02:33:45;24.87;;;11.35;;
69765;SDS011;57039;48.014;21.384;2022-11-20T02:34:48;27.02;;;12.23;;
69765;SDS011;57039;48.014;21.384;2022-11-20T02:35:51;23.83;;;11.90;;
69765;SDS011;57039;48.014;21.384;2022-11-20T02:36:54;26.50;;;12.27;;
69765;SDS011;57039;48.014;21.384;2022-11-20T02:37:59;25.77;;;11.82;;
69765;SDS011;57039;48.014;21.384;2022-11-20T02:39:04;29.73;;;11.48;;
69765;SDS011;57039;48.014;21.384;2022-11-20T02:40:08;27.25;;;12.07;;
69765;SDS011;57039;48.014;21.384;2022-11-20T02:41:11;27.67;;;12.48;;
69765;SDS011;57039;48.014;21.384;2022-11-20T02:42:14;29.90;;;12.15;;
69765;SDS011;57039;48.014;21.384;2022-11-20T02:43:16;23.73;;;11.60;;
69765;SDS011;57039;48.014;21.384;2022-11-20T02:44:19;27.30;;;11.85;;
69765;SDS011;57039;48.014;21.384;2022-11-20T02:45:22;26.35;;;12.70;;
69765;SDS011;57039;48.014;21.384;2022-11-20T02:46:26;26.58;;;12.55;;
69765;SDS011;57039;48.014;21.384;2022-11-20T02:47:30;24.15;;;11.20;;
69765;SDS011;57039;48.014;21.384;2022-11-20T02:48:33;26.00;;;11.25;;
69765;SDS011;57039;48.014;21.384;2022-11-20T02:49:35;26.12;;;11.18;;
69765;SDS011;57039;48.014;21.384;2022-11-20T02:50:38;25.80;;;11.80;;
69765;SDS011;57039;48.014;21.384;2022-11-20T02:51:42;25.48;;;11.77;;
69765;SDS011;57039;48.014;21.384;2022-11-20T02:52:45;24.33;;;10.75;;
69765;SDS011;57039;48.014;21.384;2022-11-20T02:53:48;24.50;;;10.80;;
69765;SDS011;57039;48.014;21.384;2022-11-20T02:54:51;24.90;;;10.63;;
69765;SDS011;57039;48.014;21.384;2022-11-20T02:55:54;27.87;;;10.38;;
69765;SDS011;57039;48.014;21.384;2022-11-20T02:56:57;25.12;;;10.88;;
69765;SDS011;57039;48.014;21.384;2022-11-20T02:58:00;24.77;;;11.75;;
69765;SDS011;57039;48.014;21.384;2022-11-20T02:59:02;24.85;;;10.93;;
69765;SDS011;57039;48.014;21.384;2022-11-20T03:00:06;23.85;;;11.10;;
69765;SDS011;57039;48.014;21.384;2022-11-20T03:01:09;26.05;;;10.90;;
69765;SDS011;57039;48.014;21.384;2022-11-20T03:02:12;27.05;;;11.00;;
69765;SDS011;57039;48.014;21.384;2022-11-20T03:03:15;24.75;;;10.80;;
69765;SDS011;57039;48.014;21.384;2022-11-20T03:04:18;23.00;;;11.23;;
69765;SDS011;57039;48.014;21.384;2022-11-20T03:05:21;24.87;;;10.85;;
69765;SDS011;57039;48.014;21.384;2022-11-20T03:06:23;25.10;;;10.70;;
69765;SDS011;57039;48.014;21.384;2022-11-20T03:07:27;23.38;;;10.50;;
69765;SDS011;57039;48.014;21.384;2022-11-20T03:08:29;23.60;;;10.75;;
69765;SDS011;57039;48.014;21.384;2022-11-20T03:09:32;25.62;;;10.80;;
69765;SDS011;57039;48.014;21.384;2022-11-20T03:10:35;24.70;;;11.20;;
69765;SDS011;57039;48.014;21.384;2022-11-20T03:11:37;26.33;;;11.43;;
69765;SDS011;57039;48.014;21.384;2022-11-20T03:12:40;23.65;;;10.75;;
69765;SDS011;57039;48.014;21.384;2022-11-20T03:13:43;45.58;;;21.35;;
69765;SDS011;57039;48.014;21.384;2022-11-20T03:14:46;26.30;;;12.10;;
69765;SDS011;57039;48.014;21.384;2022-11-20T03:15:54;31.73;;;14.57;;
69765;SDS011;57039;48.014;21.384;2022-11-20T03:16:56;30.50;;;12.60;;
69765;SDS011;57039;48.014;21.384;2022-11-20T03:17:59;31.45;;;14.18;;
69765;SDS011;57039;48.014;21.384;2022-11-20T03:19:02;31.67;;;14.27;;
69765;SDS011;57039;48.014;21.384;2022-11-20T03:20:05;29.23;;;14.65;;
69765;SDS011;57039;48.014;21.384;2022-11-20T03:21:11;22.85;;;11.30;;
69765;SDS011;57039;48.014;21.384;2022-11-20T03:22:15;27.58;;;13.93;;
69765;SDS011;57039;48.014;21.384;2022-11-20T03:23:18;23.77;;;10.85;;
69765;SDS011;57039;48.014;21.384;2022-11-20T03:24:21;23.58;;;11.00;;
69765;SDS011;57039;48.014;21.384;2022-11-20T03:25:24;25.17;;;10.80;;
69765;SDS011;57039;48.014;21.384;2022-11-20T03:26:29;24.48;;;11.98;;
69765;SDS011;57039;48.014;21.384;2022-11-20T03:27:33;24.02;;;10.38;;
69765;SDS011;57039;48.014;21.384;2022-11-20T03:28:37;25.62;;;11.15;;
69765;SDS011;57039;48.014;21.384;2022-11-20T03:29:40;25.12;;;11.63;;
69765;SDS011;57039;48.014;21.384;2022-11-20T03:30:43;27.02;;;10.73;;
69765;SDS011;57039;48.014;21.384;2022-11-20T03:31:45;23.00;;;10.98;;
69765;SDS011;57039;48.014;21.384;2022-11-20T03:32:48;22.67;;;10.90;;
69765;SDS011;57039;48.014;21.384;2022-11-20T03:33:51;27.00;;;11.27;;
69765;SDS011;57039;48.014;21.384;2022-11-20T03:34:54;26.77;;;11.73;;
69765;SDS011;57039;48.014;21.384;2022-11-20T03:36:00;27.23;;;12.13;;
69765;SDS011;57039;48.014;21.384;2022-11-20T03:37:05;23.77;;;10.93;;
69765;SDS011;57039;48.014;21.384;2022-11-20T03:38:08;25.88;;;10.85;;
69765;SDS011;57039;48.014;21.384;2022-11-20T03:39:11;24.35;;;11.02;;
69765;SDS011;57039;48.014;21.384;2022-11-20T03:40:14;26.23;;;11.40;;
69765;SDS011;57039;48.014;21.384;2022-11-20T03:41:18;22.33;;;10.60;;
69765;SDS011;57039;48.014;21.384;2022-11-20T03:42:23;25.02;;;10.07;;
69765;SDS011;57039;48.014;21.384;2022-11-20T03:43:51;24.17;;;10.60;;
69765;SDS011;57039;48.014;21.384;2022-11-20T03:44:56;23.08;;;10.38;;
69765;SDS011;57039;48.014;21.384;2022-11-20T03:45:59;23.90;;;10.93;;
69765;SDS011;57039;48.014;21.384;2022-11-20T03:47:08;23.00;;;10.30;;
69765;SDS011;57039;48.014;21.384;2022-11-20T03:48:11;26.23;;;10.27;;
69765;SDS011;57039;48.014;21.384;2022-11-20T03:49:14;20.27;;;9.82;;
69765;SDS011;57039;48.014;21.384;2022-11-20T03:50:17;22.35;;;10.43;;
69765;SDS011;57039;48.014;21.384;2022-11-20T03:52:23;23.38;;;10.05;;
69765;SDS011;57039;48.014;21.384;2022-11-20T03:53:26;23.60;;;9.95;;
69765;SDS011;57039;48.014;21.384;2022-11-20T03:54:29;22.27;;;10.38;;
69765;SDS011;57039;48.014;21.384;2022-11-20T03:55:32;21.73;;;11.48;;
69765;SDS011;57039;48.014;21.384;2022-11-20T03:56:35;22.95;;;11.48;;
69765;SDS011;57039;48.014;21.384;2022-11-20T03:57:39;27.73;;;12.73;;
69765;SDS011;57039;48.014;21.384;2022-11-20T03:58:43;40.12;;;16.25;;
69765;SDS011;57039;48.014;21.384;2022-11-20T03:59:46;27.08;;;13.45;;
69765;SDS011;57039;48.014;21.384;2022-11-20T04:00:49;25.27;;;11.65;;
69765;SDS011;57039;48.014;21.384;2022-11-20T04:01:52;23.45;;;10.93;;
69765;SDS011;57039;48.014;21.384;2022-11-20T04:02:57;19.90;;;9.82;;
69765;SDS011;57039;48.014;21.384;2022-11-20T04:04:01;21.55;;;10.02;;
69765;SDS011;57039;48.014;21.384;2022-11-20T04:05:04;22.00;;;9.88;;
69765;SDS011;57039;48.014;21.384;2022-11-20T04:06:08;27.13;;;11.20;;
69765;SDS011;57039;48.014;21.384;2022-11-20T04:07:16;22.05;;;10.82;;
69765;SDS011;57039;48.014;21.384;2022-11-20T04:08:18;23.57;;;10.20;;
69765;SDS011;57039;48.014;21.384;2022-11-20T04:09:21;20.40;;;10.13;;
69765;SDS011;57039;48.014;21.384;2022-11-20T04:10:24;21.30;;;9.68;;
69765;SDS011;57039;48.014;21.384;2022-11-20T04:11:30;22.08;;;10.60;;
69765;SDS011;57039;48.014;21.384;2022-11-20T04:12:36;23.58;;;10.68;;
69765;SDS011;57039;48.014;21.384;2022-11-20T04:13:39;21.73;;;10.23;;
69765;SDS011;57039;48.014;21.384;2022-11-20T04:14:42;19.23;;;10.00;;
69765;SDS011;57039;48.014;21.384;2022-11-20T04:15:45;22.20;;;10.95;;
69765;SDS011;57039;48.014;21.384;2022-11-20T04:16:48;19.05;;;10.13;;
69765;SDS011;57039;48.014;21.384;2022-11-20T04:17:51;21.80;;;10.50;;
69765;SDS011;57039;48.014;21.384;2022-11-20T04:18:54;21.33;;;9.73;;
69765;SDS011;57039;48.014;21.384;2022-11-20T04:19:58;22.53;;;10.97;;
69765;SDS011;57039;48.014;21.384;2022-11-20T04:21:01;23.70;;;11.93;;
69765;SDS011;57039;48.014;21.384;2022-11-20T04:22:05;23.30;;;11.20;;
69765;SDS011;57039;48.014;21.384;2022-11-20T04:23:08;27.52;;;12.20;;
69765;SDS011;57039;48.014;21.384;2022-11-20T04:24:11;23.62;;;10.65;;
69765;SDS011;57039;48.014;21.384;2022-11-20T04:25:14;24.35;;;10.52;;
69765;SDS011;57039;48.014;21.384;2022-11-20T04:26:17;24.42;;;10.55;;
69765;SDS011;57039;48.014;21.384;2022-11-20T04:29:26;23.60;;;10.07;;
69765;SDS011;57039;48.014;21.384;2022-11-20T04:30:28;24.17;;;11.33;;
69765;SDS011;57039;48.014;21.384;2022-11-20T04:31:33;24.58;;;11.63;;
69765;SDS011;57039;48.014;21.384;2022-11-20T04:32:36;25.37;;;11.57;;
69765;SDS011;57039;48.014;21.384;2022-11-20T04:33:39;24.42;;;11.18;;
69765;SDS011;57039;48.014;21.384;2022-11-20T04:34:43;24.65;;;11.93;;
69765;SDS011;57039;48.014;21.384;2022-11-20T04:35:46;32.20;;;15.23;;
69765;SDS011;57039;48.014;21.384;2022-11-20T04:36:50;24.60;;;12.05;;
69765;SDS011;57039;48.014;21.384;2022-11-20T04:37:52;21.50;;;10.52;;
69765;SDS011;57039;48.014;21.384;2022-11-20T04:38:56;22.77;;;9.80;;
69765;SDS011;57039;48.014;21.384;2022-11-20T04:39:59;21.75;;;11.25;;
69765;SDS011;57039;48.014;21.384;2022-11-20T04:41:03;24.03;;;10.67;;
69765;SDS011;57039;48.014;21.384;2022-11-20T04:42:08;20.45;;;10.48;;
69765;SDS011;57039;48.014;21.384;2022-11-20T04:43:30;22.73;;;10.32;;
69765;SDS011;57039;48.014;21.384;2022-11-20T04:44:34;25.30;;;11.00;;
69765;SDS011;57039;48.014;21.384;2022-11-20T04:45:36;24.65;;;11.02;;
69765;SDS011;57039;48.014;21.384;2022-11-20T04:46:40;23.77;;;10.85;;
69765;SDS011;57039;48.014;21.384;2022-11-20T04:47:44;23.33;;;10.75;;
69765;SDS011;57039;48.014;21.384;2022-11-20T04:50:52;23.55;;;10.45;;
69765;SDS011;57039;48.014;21.384;2022-11-20T04:51:55;26.58;;;11.23;;
69765;SDS011;57039;48.014;21.384;2022-11-20T04:55:04;23.85;;;11.23;;
69765;SDS011;57039;48.014;21.384;2022-11-20T04:56:08;30.98;;;14.93;;
69765;SDS011;57039;48.014;21.384;2022-11-20T04:57:13;28.80;;;13.07;;
69765;SDS011;57039;48.014;21.384;2022-11-20T04:58:16;25.62;;;13.20;;
69765;SDS011;57039;48.014;21.384;2022-11-20T04:59:19;31.60;;;15.20;;
69765;SDS011;57039;48.014;21.384;2022-11-20T05:00:22;38.05;;;16.87;;
69765;SDS011;57039;48.014;21.384;2022-11-20T05:01:25;31.02;;;13.27;;
69765;SDS011;57039;48.014;21.384;2022-11-20T05:02:30;35.22;;;16.67;;
69765;SDS011;57039;48.014;21.384;2022-11-20T05:03:33;37.17;;;16.73;;
69765;SDS011;57039;48.014;21.384;2022-11-20T05:04:43;28.90;;;13.70;;
69765;SDS011;57039;48.014;21.384;2022-11-20T05:05:45;26.73;;;12.40;;
69765;SDS011;57039;48.014;21.384;2022-11-20T05:06:49;28.77;;;12.82;;
69765;SDS011;57039;48.014;21.384;2022-11-20T05:07:52;27.60;;;13.32;;
69765;SDS011;57039;48.014;21.384;2022-11-20T05:08:55;24.52;;;12.00;;
69765;SDS011;57039;48.014;21.384;2022-11-20T05:09:57;23.95;;;11.85;;
69765;SDS011;57039;48.014;21.384;2022-11-20T05:11:13;23.48;;;11.05;;
69765;SDS011;57039;48.014;21.384;2022-11-20T05:12:18;23.98;;;11.90;;
69765;SDS011;57039;48.014;21.384;2022-11-20T05:13:21;25.37;;;11.98;;
69765;SDS011;57039;48.014;21.384;2022-11-20T05:14:25;23.80;;;10.80;;
69765;SDS011;57039;48.014;21.384;2022-11-20T05:15:27;20.63;;;11.00;;
69765;SDS011;57039;48.014;21.384;2022-11-20T05:16:30;21.27;;;10.50;;
69765;SDS011;57039;48.014;21.384;2022-11-20T05:17:36;22.20;;;11.30;;
69765;SDS011;57039;48.014;21.384;2022-11-20T05:18:40;27.50;;;11.65;;
69765;SDS011;57039;48.014;21.384;2022-11-20T05:19:43;25.70;;;12.02;;
69765;SDS011;57039;48.014;21.384;2022-11-20T05:20:54;22.87;;;11.48;;
69765;SDS011;57039;48.014;21.384;2022-11-20T05:21:58;22.95;;;11.70;;
69765;SDS011;57039;48.014;21.384;2022-11-20T05:23:01;25.65;;;12.30;;
69765;SDS011;57039;48.014;21.384;2022-11-20T05:24:04;27.50;;;12.57;;
69765;SDS011;57039;48.014;21.384;2022-11-20T05:25:08;28.98;;;13.45;;
69765;SDS011;57039;48.014;21.384;2022-11-20T05:26:14;29.80;;;13.70;;
69765;SDS011;57039;48.014;21.384;2022-11-20T05:27:21;33.83;;;14.63;;
69765;SDS011;57039;48.014;21.384;2022-11-20T05:28:24;36.15;;;16.02;;
69765;SDS011;57039;48.014;21.384;2022-11-20T05:29:28;41.17;;;18.42;;
69765;SDS011;57039;48.014;21.384;2022-11-20T05:30:30;41.75;;;19.77;;
69765;SDS011;57039;48.014;21.384;2022-11-20T05:31:33;34.75;;;17.12;;
69765;SDS011;57039;48.014;21.384;2022-11-20T05:32:36;30.75;;;15.10;;
69765;SDS011;57039;48.014;21.384;2022-11-20T05:33:42;31.40;;;15.43;;
69765;SDS011;57039;48.014;21.384;2022-11-20T05:34:51;28.70;;;13.50;;
69765;SDS011;57039;48.014;21.384;2022-11-20T05:35:57;28.15;;;13.57;;
69765;SDS011;57039;48.014;21.384;2022-11-20T05:37:00;28.70;;;13.20;;
69765;SDS011;57039;48.014;21.384;2022-11-20T05:38:03;28.17;;;13.00;;
69765;SDS011;57039;48.014;21.384;2022-11-20T05:39:06;27.00;;;13.27;;
69765;SDS011;57039;48.014;21.384;2022-11-20T05:40:09;26.48;;;12.93;;
69765;SDS011;57039;48.014;21.384;2022-11-20T05:41:13;25.70;;;14.15;;
69765;SDS011;57039;48.014;21.384;2022-11-20T05:42:17;24.12;;;12.27;;
69765;SDS011;57039;48.014;21.384;2022-11-20T05:43:33;28.23;;;13.38;;
69765;SDS011;57039;48.014;21.384;2022-11-20T05:44:36;25.92;;;13.75;;
69765;SDS011;57039;48.014;21.384;2022-11-20T05:45:39;24.73;;;12.27;;
69765;SDS011;57039;48.014;21.384;2022-11-20T05:46:42;25.60;;;13.07;;
69765;SDS011;57039;48.014;21.384;2022-11-20T05:47:45;26.63;;;14.20;;
69765;SDS011;57039;48.014;21.384;2022-11-20T05:48:48;28.00;;;13.63;;
69765;SDS011;57039;48.014;21.384;2022-11-20T05:49:50;27.13;;;14.07;;
69765;SDS011;57039;48.014;21.384;2022-11-20T05:50:53;29.63;;;13.82;;
69765;SDS011;57039;48.014;21.384;2022-11-20T05:51:56;30.80;;;13.65;;
69765;SDS011;57039;48.014;21.384;2022-11-20T05:52:59;28.10;;;13.82;;
69765;SDS011;57039;48.014;21.384;2022-11-20T05:54:02;27.65;;;13.85;;
69765;SDS011;57039;48.014;21.384;2022-11-20T05:55:05;31.58;;;14.52;;
69765;SDS011;57039;48.014;21.384;2022-11-20T05:56:09;30.08;;;13.68;;
69765;SDS011;57039;48.014;21.384;2022-11-20T05:57:14;26.55;;;12.73;;
69765;SDS011;57039;48.014;21.384;2022-11-20T05:58:17;27.17;;;12.53;;
69765;SDS011;57039;48.014;21.384;2022-11-20T05:59:20;27.58;;;12.80;;
69765;SDS011;57039;48.014;21.384;2022-11-20T06:00:23;32.25;;;14.15;;
69765;SDS011;57039;48.014;21.384;2022-11-20T06:01:26;30.95;;;14.02;;
69765;SDS011;57039;48.014;21.384;2022-11-20T06:02:29;29.75;;;14.80;;
69765;SDS011;57039;48.014;21.384;2022-11-20T06:03:31;33.15;;;15.90;;
69765;SDS011;57039;48.014;21.384;2022-11-20T06:04:34;31.42;;;13.93;;
69765;SDS011;57039;48.014;21.384;2022-11-20T06:05:37;30.85;;;14.38;;
69765;SDS011;57039;48.014;21.384;2022-11-20T06:06:40;34.95;;;19.10;;
69765;SDS011;57039;48.014;21.384;2022-11-20T06:07:43;32.60;;;18.33;;
69765;SDS011;57039;48.014;21.384;2022-11-20T06:08:46;37.53;;;19.17;;
69765;SDS011;57039;48.014;21.384;2022-11-20T06:09:49;37.22;;;21.23;;
69765;SDS011;57039;48.014;21.384;2022-11-20T06:10:52;28.75;;;15.77;;
69765;SDS011;57039;48.014;21.384;2022-11-20T06:11:55;28.52;;;14.55;;
69765;SDS011;57039;48.014;21.384;2022-11-20T06:12:58;32.38;;;16.45;;
69765;SDS011;57039;48.014;21.384;2022-11-20T06:14:00;28.95;;;15.15;;
69765;SDS011;57039;48.014;21.384;2022-11-20T06:15:04;29.02;;;14.48;;
69765;SDS011;57039;48.014;21.384;2022-11-20T06:16:08;34.38;;;16.73;;
69765;SDS011;57039;48.014;21.384;2022-11-20T06:17:12;34.38;;;14.95;;
69765;SDS011;57039;48.014;21.384;2022-11-20T06:18:16;32.45;;;14.95;;
69765;SDS011;57039;48.014;21.384;2022-11-20T06:19:19;28.20;;;13.77;;
69765;SDS011;57039;48.014;21.384;2022-11-20T06:20:22;34.47;;;15.17;;
69765;SDS011;57039;48.014;21.384;2022-11-20T06:21:25;41.10;;;20.17;;